sensor_id;sensor_type;location;lat;lon;timestamp;P1;durP1;ratioP1;P2;durP2;ratioP2
6517;SDS011;3292;48.944;9.240;2022-12-19T00:01:07;35.73;;;21.30;;
6517;SDS011;3292;48.944;9.240;2022-12-19T00:03:42;38.07;;;22.27;;
6517;SDS011;3292;48.944;9.240;2022-12-19T00:06:09;35.60;;;19.57;;
6517;SDS011;3292;48.944;9.240;2022-12-19T00:08:36;34.67;;;20.67;;
6517;SDS011;3292;48.944;9.240;2022-12-19T00:11:04;36.03;;;20.53;;
6517;SDS011;3292;48.944;9.240;2022-12-19T00:13:34;36.83;;;20.87;;
6517;SDS011;3292;48.944;9.240;2022-12-19T00:16:02;35.73;;;21.50;;
6517;SDS011;3292;48.944;9.240;2022-12-19T00:18:32;32.20;;;20.80;;
6517;SDS011;3292;48.944;9.240;2022-12-19T00:21:01;35.93;;;19.83;;
6517;SDS011;3292;48.944;9.240;2022-12-19T00:23:30;33.23;;;20.77;;
6517;SDS011;3292;48.944;9.240;2022-12-19T00:26:05;36.30;;;20.60;;
6517;SDS011;3292;48.944;9.240;2022-12-19T00:28:34;35.00;;;20.93;;
6517;SDS011;3292;48.944;9.240;2022-12-19T00:31:01;32.03;;;19.33;;
6517;SDS011;3292;48.944;9.240;2022-12-19T00:33:29;33.57;;;20.57;;
6517;SDS011;3292;48.944;9.240;2022-12-19T00:35:58;32.47;;;20.60;;
6517;SDS011;3292;48.944;9.240;2022-12-19T00:38:27;31.47;;;18.83;;
6517;SDS011;3292;48.944;9.240;2022-12-19T00:40:55;32.67;;;19.40;;
6517;SDS011;3292;48.944;9.240;2022-12-19T00:43:32;33.80;;;19.97;;
6517;SDS011;3292;48.944;9.240;2022-12-19T00:46:00;34.07;;;20.20;;
6517;SDS011;3292;48.944;9.240;2022-12-19T00:48:29;32.97;;;20.30;;
6517;SDS011;3292;48.944;9.240;2022-12-19T00:51:01;32.53;;;19.73;;
6517;SDS011;3292;48.944;9.240;2022-12-19T00:53:29;31.27;;;19.17;;
6517;SDS011;3292;48.944;9.240;2022-12-19T00:55:59;35.40;;;20.30;;
6517;SDS011;3292;48.944;9.240;2022-12-19T00:58:27;33.70;;;20.00;;
6517;SDS011;3292;48.944;9.240;2022-12-19T01:00:55;35.13;;;19.80;;
6517;SDS011;3292;48.944;9.240;2022-12-19T01:03:22;35.77;;;20.23;;
6517;SDS011;3292;48.944;9.240;2022-12-19T01:05:50;35.87;;;20.37;;
6517;SDS011;3292;48.944;9.240;2022-12-19T01:08:20;31.13;;;19.37;;
6517;SDS011;3292;48.944;9.240;2022-12-19T01:10:47;34.33;;;20.00;;
6517;SDS011;3292;48.944;9.240;2022-12-19T01:13:16;32.87;;;19.90;;
6517;SDS011;3292;48.944;9.240;2022-12-19T01:15:44;34.10;;;19.83;;
6517;SDS011;3292;48.944;9.240;2022-12-19T01:18:11;35.27;;;20.30;;
6517;SDS011;3292;48.944;9.240;2022-12-19T01:20:39;29.83;;;18.73;;
6517;SDS011;3292;48.944;9.240;2022-12-19T01:23:07;32.23;;;18.80;;
6517;SDS011;3292;48.944;9.240;2022-12-19T01:25:37;31.23;;;20.10;;
6517;SDS011;3292;48.944;9.240;2022-12-19T01:28:05;32.97;;;19.13;;
6517;SDS011;3292;48.944;9.240;2022-12-19T01:30:32;29.13;;;17.93;;
6517;SDS011;3292;48.944;9.240;2022-12-19T01:33:00;32.73;;;20.07;;
6517;SDS011;3292;48.944;9.240;2022-12-19T01:35:27;33.53;;;20.03;;
6517;SDS011;3292;48.944;9.240;2022-12-19T01:37:54;29.27;;;18.00;;
6517;SDS011;3292;48.944;9.240;2022-12-19T01:40:22;32.07;;;18.87;;
6517;SDS011;3292;48.944;9.240;2022-12-19T01:42:52;31.47;;;18.37;;
6517;SDS011;3292;48.944;9.240;2022-12-19T01:45:23;29.67;;;18.30;;
6517;SDS011;3292;48.944;9.240;2022-12-19T01:47:53;30.03;;;18.17;;
6517;SDS011;3292;48.944;9.240;2022-12-19T01:50:27;32.87;;;19.73;;
6517;SDS011;3292;48.944;9.240;2022-12-19T01:52:58;32.93;;;20.20;;
6517;SDS011;3292;48.944;9.240;2022-12-19T01:55:27;33.77;;;19.77;;
6517;SDS011;3292;48.944;9.240;2022-12-19T01:57:56;30.23;;;18.73;;
6517;SDS011;3292;48.944;9.240;2022-12-19T02:00:27;31.40;;;19.27;;
6517;SDS011;3292;48.944;9.240;2022-12-19T02:02:55;34.20;;;19.90;;
6517;SDS011;3292;48.944;9.240;2022-12-19T02:05:26;29.00;;;18.33;;
6517;SDS011;3292;48.944;9.240;2022-12-19T02:07:55;33.30;;;19.80;;
6517;SDS011;3292;48.944;9.240;2022-12-19T02:10:23;33.50;;;19.57;;
6517;SDS011;3292;48.944;9.240;2022-12-19T02:12:53;33.63;;;19.17;;
6517;SDS011;3292;48.944;9.240;2022-12-19T02:15:25;36.33;;;20.03;;
6517;SDS011;3292;48.944;9.240;2022-12-19T02:18:02;31.07;;;18.80;;
6517;SDS011;3292;48.944;9.240;2022-12-19T02:26:43;31.40;;;19.47;;
6517;SDS011;3292;48.944;9.240;2022-12-19T02:29:30;34.50;;;19.17;;
6517;SDS011;3292;48.944;9.240;2022-12-19T02:32:14;34.07;;;18.90;;
6517;SDS011;3292;48.944;9.240;2022-12-19T02:34:48;31.63;;;18.93;;
6517;SDS011;3292;48.944;9.240;2022-12-19T02:37:23;31.50;;;18.47;;
6517;SDS011;3292;48.944;9.240;2022-12-19T02:39:57;29.90;;;18.57;;
6517;SDS011;3292;48.944;9.240;2022-12-19T02:42:31;40.77;;;21.03;;
6517;SDS011;3292;48.944;9.240;2022-12-19T02:45:03;33.00;;;19.33;;
6517;SDS011;3292;48.944;9.240;2022-12-19T02:47:35;35.53;;;20.23;;
6517;SDS011;3292;48.944;9.240;2022-12-19T02:50:03;34.13;;;19.40;;
6517;SDS011;3292;48.944;9.240;2022-12-19T02:52:44;32.37;;;19.53;;
6517;SDS011;3292;48.944;9.240;2022-12-19T02:55:16;30.27;;;18.13;;
6517;SDS011;3292;48.944;9.240;2022-12-19T02:57:55;32.03;;;18.90;;
6517;SDS011;3292;48.944;9.240;2022-12-19T03:00:45;32.60;;;19.67;;
6517;SDS011;3292;48.944;9.240;2022-12-19T03:03:23;32.87;;;18.63;;
6517;SDS011;3292;48.944;9.240;2022-12-19T03:06:00;34.60;;;18.67;;
6517;SDS011;3292;48.944;9.240;2022-12-19T03:08:36;35.93;;;20.27;;
6517;SDS011;3292;48.944;9.240;2022-12-19T03:11:12;33.20;;;19.90;;
6517;SDS011;3292;48.944;9.240;2022-12-19T03:13:42;31.47;;;19.50;;
6517;SDS011;3292;48.944;9.240;2022-12-19T03:16:16;36.93;;;20.10;;
6517;SDS011;3292;48.944;9.240;2022-12-19T03:18:47;33.70;;;20.63;;
6517;SDS011;3292;48.944;9.240;2022-12-19T03:21:24;36.47;;;20.57;;
6517;SDS011;3292;48.944;9.240;2022-12-19T03:23:57;32.27;;;18.60;;
6517;SDS011;3292;48.944;9.240;2022-12-19T03:26:27;33.60;;;19.00;;
6517;SDS011;3292;48.944;9.240;2022-12-19T03:28:58;31.93;;;19.83;;
6517;SDS011;3292;48.944;9.240;2022-12-19T03:31:31;36.03;;;20.33;;
6517;SDS011;3292;48.944;9.240;2022-12-19T03:34:02;32.70;;;19.07;;
6517;SDS011;3292;48.944;9.240;2022-12-19T03:36:34;36.03;;;20.17;;
6517;SDS011;3292;48.944;9.240;2022-12-19T03:39:04;32.67;;;20.03;;
6517;SDS011;3292;48.944;9.240;2022-12-19T03:41:34;33.70;;;18.70;;
6517;SDS011;3292;48.944;9.240;2022-12-19T03:44:20;34.73;;;20.53;;
6517;SDS011;3292;48.944;9.240;2022-12-19T03:46:59;35.53;;;19.20;;
6517;SDS011;3292;48.944;9.240;2022-12-19T03:49:34;32.80;;;19.13;;
6517;SDS011;3292;48.944;9.240;2022-12-19T03:52:08;35.33;;;20.13;;
6517;SDS011;3292;48.944;9.240;2022-12-19T03:54:41;37.30;;;20.57;;
6517;SDS011;3292;48.944;9.240;2022-12-19T03:57:22;34.83;;;20.60;;
6517;SDS011;3292;48.944;9.240;2022-12-19T03:59:56;38.37;;;21.00;;
6517;SDS011;3292;48.944;9.240;2022-12-19T04:02:27;32.73;;;20.13;;
6517;SDS011;3292;48.944;9.240;2022-12-19T04:04:57;31.67;;;20.30;;
6517;SDS011;3292;48.944;9.240;2022-12-19T04:07:36;33.33;;;20.03;;
6517;SDS011;3292;48.944;9.240;2022-12-19T04:10:05;36.40;;;19.90;;
6517;SDS011;3292;48.944;9.240;2022-12-19T04:12:37;33.57;;;20.40;;
6517;SDS011;3292;48.944;9.240;2022-12-19T04:15:08;33.40;;;20.47;;
6517;SDS011;3292;48.944;9.240;2022-12-19T04:17:41;34.07;;;19.70;;
6517;SDS011;3292;48.944;9.240;2022-12-19T04:20:15;32.17;;;19.73;;
6517;SDS011;3292;48.944;9.240;2022-12-19T04:22:46;32.37;;;19.30;;
6517;SDS011;3292;48.944;9.240;2022-12-19T04:25:21;33.10;;;20.67;;
6517;SDS011;3292;48.944;9.240;2022-12-19T04:27:55;33.27;;;19.83;;
6517;SDS011;3292;48.944;9.240;2022-12-19T04:30:25;38.27;;;20.30;;
6517;SDS011;3292;48.944;9.240;2022-12-19T04:32:53;37.00;;;20.47;;
6517;SDS011;3292;48.944;9.240;2022-12-19T04:35:23;32.00;;;18.33;;
6517;SDS011;3292;48.944;9.240;2022-12-19T04:37:50;36.40;;;21.27;;
6517;SDS011;3292;48.944;9.240;2022-12-19T04:40:29;35.00;;;19.07;;
6517;SDS011;3292;48.944;9.240;2022-12-19T04:42:56;33.90;;;19.47;;
6517;SDS011;3292;48.944;9.240;2022-12-19T04:45:23;35.43;;;20.60;;
6517;SDS011;3292;48.944;9.240;2022-12-19T04:47:50;34.57;;;19.90;;
6517;SDS011;3292;48.944;9.240;2022-12-19T04:50:17;35.53;;;20.60;;
6517;SDS011;3292;48.944;9.240;2022-12-19T04:52:46;31.63;;;18.93;;
6517;SDS011;3292;48.944;9.240;2022-12-19T04:55:12;36.77;;;20.47;;
6517;SDS011;3292;48.944;9.240;2022-12-19T04:57:39;32.60;;;19.23;;
6517;SDS011;3292;48.944;9.240;2022-12-19T05:00:07;33.63;;;19.83;;
6517;SDS011;3292;48.944;9.240;2022-12-19T05:02:36;35.63;;;20.20;;
6517;SDS011;3292;48.944;9.240;2022-12-19T05:05:04;34.17;;;20.10;;
6517;SDS011;3292;48.944;9.240;2022-12-19T05:07:32;34.53;;;20.30;;
6517;SDS011;3292;48.944;9.240;2022-12-19T05:10:01;36.33;;;21.00;;
6517;SDS011;3292;48.944;9.240;2022-12-19T05:12:29;35.63;;;20.07;;
6517;SDS011;3292;48.944;9.240;2022-12-19T05:14:57;33.27;;;20.20;;
6517;SDS011;3292;48.944;9.240;2022-12-19T05:17:26;33.33;;;19.83;;
6517;SDS011;3292;48.944;9.240;2022-12-19T05:19:53;38.07;;;21.10;;
6517;SDS011;3292;48.944;9.240;2022-12-19T05:22:24;30.70;;;19.13;;
6517;SDS011;3292;48.944;9.240;2022-12-19T05:24:57;31.07;;;19.60;;
6517;SDS011;3292;48.944;9.240;2022-12-19T05:27:26;34.57;;;19.00;;
6517;SDS011;3292;48.944;9.240;2022-12-19T05:29:53;33.70;;;19.60;;
6517;SDS011;3292;48.944;9.240;2022-12-19T05:32:21;35.07;;;20.00;;
6517;SDS011;3292;48.944;9.240;2022-12-19T05:34:49;33.57;;;19.93;;
6517;SDS011;3292;48.944;9.240;2022-12-19T05:37:25;34.70;;;19.93;;
6517;SDS011;3292;48.944;9.240;2022-12-19T05:39:52;30.77;;;18.47;;
6517;SDS011;3292;48.944;9.240;2022-12-19T05:42:19;35.90;;;19.50;;
6517;SDS011;3292;48.944;9.240;2022-12-19T05:44:48;33.93;;;19.77;;
6517;SDS011;3292;48.944;9.240;2022-12-19T05:47:15;35.60;;;20.27;;
6517;SDS011;3292;48.944;9.240;2022-12-19T05:49:46;32.33;;;19.50;;
6517;SDS011;3292;48.944;9.240;2022-12-19T05:52:14;36.53;;;20.67;;
6517;SDS011;3292;48.944;9.240;2022-12-19T05:54:41;32.67;;;19.03;;
6517;SDS011;3292;48.944;9.240;2022-12-19T05:57:09;34.67;;;19.30;;
6517;SDS011;3292;48.944;9.240;2022-12-19T05:59:36;31.10;;;19.10;;
6517;SDS011;3292;48.944;9.240;2022-12-19T06:02:05;31.93;;;19.33;;
6517;SDS011;3292;48.944;9.240;2022-12-19T06:04:32;36.87;;;19.90;;
6517;SDS011;3292;48.944;9.240;2022-12-19T06:07:02;33.17;;;19.60;;
6517;SDS011;3292;48.944;9.240;2022-12-19T06:09:29;32.57;;;19.27;;
6517;SDS011;3292;48.944;9.240;2022-12-19T06:11:57;32.27;;;19.23;;
6517;SDS011;3292;48.944;9.240;2022-12-19T06:14:27;32.50;;;17.73;;
6517;SDS011;3292;48.944;9.240;2022-12-19T06:16:54;30.67;;;19.43;;
6517;SDS011;3292;48.944;9.240;2022-12-19T06:19:22;28.73;;;18.20;;
6517;SDS011;3292;48.944;9.240;2022-12-19T06:21:52;35.20;;;19.00;;
6517;SDS011;3292;48.944;9.240;2022-12-19T06:24:18;31.10;;;18.70;;
6517;SDS011;3292;48.944;9.240;2022-12-19T06:26:45;30.03;;;18.90;;
6517;SDS011;3292;48.944;9.240;2022-12-19T06:29:15;30.80;;;18.33;;
6517;SDS011;3292;48.944;9.240;2022-12-19T06:31:42;30.90;;;18.97;;
6517;SDS011;3292;48.944;9.240;2022-12-19T06:34:10;31.20;;;19.17;;
6517;SDS011;3292;48.944;9.240;2022-12-19T06:36:40;28.37;;;18.17;;
6517;SDS011;3292;48.944;9.240;2022-12-19T06:39:08;29.90;;;17.83;;
6517;SDS011;3292;48.944;9.240;2022-12-19T06:41:39;34.13;;;19.07;;
6517;SDS011;3292;48.944;9.240;2022-12-19T06:44:25;31.20;;;18.80;;
6517;SDS011;3292;48.944;9.240;2022-12-19T06:46:53;30.77;;;18.93;;
6517;SDS011;3292;48.944;9.240;2022-12-19T06:49:20;30.47;;;18.97;;
6517;SDS011;3292;48.944;9.240;2022-12-19T06:51:49;29.27;;;18.10;;
6517;SDS011;3292;48.944;9.240;2022-12-19T06:54:16;30.67;;;18.40;;
6517;SDS011;3292;48.944;9.240;2022-12-19T06:56:44;35.73;;;19.30;;
6517;SDS011;3292;48.944;9.240;2022-12-19T06:59:11;28.87;;;17.50;;
6517;SDS011;3292;48.944;9.240;2022-12-19T07:01:45;32.83;;;19.57;;
6517;SDS011;3292;48.944;9.240;2022-12-19T07:04:23;30.67;;;19.57;;
6517;SDS011;3292;48.944;9.240;2022-12-19T07:06:55;29.37;;;18.47;;
6517;SDS011;3292;48.944;9.240;2022-12-19T07:09:23;29.90;;;18.23;;
6517;SDS011;3292;48.944;9.240;2022-12-19T07:11:52;29.67;;;19.27;;
6517;SDS011;3292;48.944;9.240;2022-12-19T07:14:19;34.27;;;19.80;;
6517;SDS011;3292;48.944;9.240;2022-12-19T07:16:47;30.20;;;18.93;;
6517;SDS011;3292;48.944;9.240;2022-12-19T07:19:17;27.57;;;17.97;;
6517;SDS011;3292;48.944;9.240;2022-12-19T07:21:46;34.23;;;19.23;;
6517;SDS011;3292;48.944;9.240;2022-12-19T07:24:16;28.87;;;18.53;;
6517;SDS011;3292;48.944;9.240;2022-12-19T07:26:43;29.23;;;18.83;;
6517;SDS011;3292;48.944;9.240;2022-12-19T07:29:15;33.23;;;19.87;;
6517;SDS011;3292;48.944;9.240;2022-12-19T07:31:42;30.07;;;19.57;;
6517;SDS011;3292;48.944;9.240;2022-12-19T07:34:09;29.50;;;18.87;;
6517;SDS011;3292;48.944;9.240;2022-12-19T07:36:36;31.13;;;18.73;;
6517;SDS011;3292;48.944;9.240;2022-12-19T07:39:04;34.77;;;19.83;;
6517;SDS011;3292;48.944;9.240;2022-12-19T07:41:36;29.87;;;18.90;;
6517;SDS011;3292;48.944;9.240;2022-12-19T07:44:03;34.27;;;19.63;;
6517;SDS011;3292;48.944;9.240;2022-12-19T07:46:32;28.87;;;18.47;;
6517;SDS011;3292;48.944;9.240;2022-12-19T07:48:59;30.60;;;19.60;;
6517;SDS011;3292;48.944;9.240;2022-12-19T07:51:26;31.60;;;19.67;;
6517;SDS011;3292;48.944;9.240;2022-12-19T07:53:54;33.40;;;19.10;;
6517;SDS011;3292;48.944;9.240;2022-12-19T07:56:21;31.33;;;18.27;;
6517;SDS011;3292;48.944;9.240;2022-12-19T07:58:51;28.30;;;18.47;;
6517;SDS011;3292;48.944;9.240;2022-12-19T08:01:18;32.10;;;19.10;;
6517;SDS011;3292;48.944;9.240;2022-12-19T08:03:46;34.20;;;20.00;;
6517;SDS011;3292;48.944;9.240;2022-12-19T08:06:21;31.30;;;18.60;;
6517;SDS011;3292;48.944;9.240;2022-12-19T08:08:48;32.30;;;19.47;;
6517;SDS011;3292;48.944;9.240;2022-12-19T08:11:23;32.57;;;19.13;;
6517;SDS011;3292;48.944;9.240;2022-12-19T08:13:55;31.33;;;18.87;;
6517;SDS011;3292;48.944;9.240;2022-12-19T08:16:23;30.47;;;19.10;;
6517;SDS011;3292;48.944;9.240;2022-12-19T08:18:53;31.67;;;20.37;;
6517;SDS011;3292;48.944;9.240;2022-12-19T08:21:21;29.50;;;18.90;;
6517;SDS011;3292;48.944;9.240;2022-12-19T08:23:48;34.50;;;19.50;;
6517;SDS011;3292;48.944;9.240;2022-12-19T08:26:17;32.60;;;18.43;;
6517;SDS011;3292;48.944;9.240;2022-12-19T08:28:49;28.93;;;17.70;;
6517;SDS011;3292;48.944;9.240;2022-12-19T08:31:20;31.20;;;18.40;;
6517;SDS011;3292;48.944;9.240;2022-12-19T08:33:49;29.30;;;18.83;;
6517;SDS011;3292;48.944;9.240;2022-12-19T08:36:17;33.63;;;18.20;;
6517;SDS011;3292;48.944;9.240;2022-12-19T08:38:45;31.03;;;18.50;;
6517;SDS011;3292;48.944;9.240;2022-12-19T08:41:13;31.83;;;18.83;;
6517;SDS011;3292;48.944;9.240;2022-12-19T08:43:41;31.90;;;18.03;;
6517;SDS011;3292;48.944;9.240;2022-12-19T08:46:13;30.17;;;18.87;;
6517;SDS011;3292;48.944;9.240;2022-12-19T08:48:43;33.50;;;20.07;;
6517;SDS011;3292;48.944;9.240;2022-12-19T08:51:12;34.53;;;21.03;;
6517;SDS011;3292;48.944;9.240;2022-12-19T08:53:41;32.30;;;18.80;;
6517;SDS011;3292;48.944;9.240;2022-12-19T08:56:09;28.53;;;18.77;;
6517;SDS011;3292;48.944;9.240;2022-12-19T08:58:38;30.77;;;19.23;;
6517;SDS011;3292;48.944;9.240;2022-12-19T09:01:07;30.87;;;19.03;;
6517;SDS011;3292;48.944;9.240;2022-12-19T09:03:38;27.87;;;18.53;;
6517;SDS011;3292;48.944;9.240;2022-12-19T09:06:09;32.40;;;21.20;;
6517;SDS011;3292;48.944;9.240;2022-12-19T09:08:40;35.43;;;22.43;;
6517;SDS011;3292;48.944;9.240;2022-12-19T09:11:08;38.13;;;22.60;;
6517;SDS011;3292;48.944;9.240;2022-12-19T09:13:37;34.77;;;20.77;;
6517;SDS011;3292;48.944;9.240;2022-12-19T09:16:07;33.40;;;21.00;;
6517;SDS011;3292;48.944;9.240;2022-12-19T09:18:37;36.23;;;19.97;;
6517;SDS011;3292;48.944;9.240;2022-12-19T09:21:06;29.83;;;20.63;;
6517;SDS011;3292;48.944;9.240;2022-12-19T09:23:35;31.07;;;19.40;;
6517;SDS011;3292;48.944;9.240;2022-12-19T09:26:05;29.37;;;19.37;;
6517;SDS011;3292;48.944;9.240;2022-12-19T09:28:34;27.87;;;18.23;;
6517;SDS011;3292;48.944;9.240;2022-12-19T09:31:03;26.00;;;17.47;;
6517;SDS011;3292;48.944;9.240;2022-12-19T09:33:31;27.40;;;18.87;;
6517;SDS011;3292;48.944;9.240;2022-12-19T09:36:01;32.50;;;20.73;;
6517;SDS011;3292;48.944;9.240;2022-12-19T09:38:31;34.17;;;19.73;;
6517;SDS011;3292;48.944;9.240;2022-12-19T09:41:05;29.87;;;18.77;;
6517;SDS011;3292;48.944;9.240;2022-12-19T09:43:52;29.63;;;19.50;;
6517;SDS011;3292;48.944;9.240;2022-12-19T09:46:31;27.20;;;18.43;;
6517;SDS011;3292;48.944;9.240;2022-12-19T09:49:09;29.23;;;18.00;;
6517;SDS011;3292;48.944;9.240;2022-12-19T09:51:38;29.20;;;18.77;;
6517;SDS011;3292;48.944;9.240;2022-12-19T09:54:12;25.93;;;17.80;;
6517;SDS011;3292;48.944;9.240;2022-12-19T09:56:43;27.73;;;18.20;;
6517;SDS011;3292;48.944;9.240;2022-12-19T09:59:15;29.07;;;18.70;;
6517;SDS011;3292;48.944;9.240;2022-12-19T10:02:00;29.43;;;17.97;;
6517;SDS011;3292;48.944;9.240;2022-12-19T10:04:40;26.17;;;17.50;;
6517;SDS011;3292;48.944;9.240;2022-12-19T10:07:16;24.87;;;16.90;;
6517;SDS011;3292;48.944;9.240;2022-12-19T10:09:47;30.40;;;18.17;;
6517;SDS011;3292;48.944;9.240;2022-12-19T10:12:19;29.50;;;20.03;;
6517;SDS011;3292;48.944;9.240;2022-12-19T10:15:04;27.63;;;18.70;;
6517;SDS011;3292;48.944;9.240;2022-12-19T10:17:40;28.33;;;17.87;;
6517;SDS011;3292;48.944;9.240;2022-12-19T10:20:26;28.40;;;18.80;;
6517;SDS011;3292;48.944;9.240;2022-12-19T10:23:00;25.90;;;19.03;;
6517;SDS011;3292;48.944;9.240;2022-12-19T10:25:46;28.33;;;17.80;;
6517;SDS011;3292;48.944;9.240;2022-12-19T10:28:23;27.57;;;17.40;;
6517;SDS011;3292;48.944;9.240;2022-12-19T10:31:08;25.83;;;17.07;;
6517;SDS011;3292;48.944;9.240;2022-12-19T10:33:42;24.87;;;18.03;;
6517;SDS011;3292;48.944;9.240;2022-12-19T10:36:14;31.30;;;19.83;;
6517;SDS011;3292;48.944;9.240;2022-12-19T10:38:44;29.97;;;18.90;;
6517;SDS011;3292;48.944;9.240;2022-12-19T10:41:23;33.00;;;20.03;;
6517;SDS011;3292;48.944;9.240;2022-12-19T10:43:56;31.13;;;19.77;;
6517;SDS011;3292;48.944;9.240;2022-12-19T10:46:35;27.30;;;19.10;;
6517;SDS011;3292;48.944;9.240;2022-12-19T10:49:11;25.37;;;16.37;;
6517;SDS011;3292;48.944;9.240;2022-12-19T10:51:41;24.90;;;16.23;;
6517;SDS011;3292;48.944;9.240;2022-12-19T10:54:38;24.93;;;16.90;;
6517;SDS011;3292;48.944;9.240;2022-12-19T10:57:17;26.40;;;16.57;;
6517;SDS011;3292;48.944;9.240;2022-12-19T10:59:53;29.20;;;19.60;;
6517;SDS011;3292;48.944;9.240;2022-12-19T11:02:31;24.87;;;17.63;;
6517;SDS011;3292;48.944;9.240;2022-12-19T11:05:04;25.00;;;16.17;;
6517;SDS011;3292;48.944;9.240;2022-12-19T11:07:53;26.73;;;16.97;;
6517;SDS011;3292;48.944;9.240;2022-12-19T11:10:35;27.87;;;18.17;;
6517;SDS011;3292;48.944;9.240;2022-12-19T11:13:16;24.80;;;17.97;;
6517;SDS011;3292;48.944;9.240;2022-12-19T11:15:46;28.17;;;18.07;;
6517;SDS011;3292;48.944;9.240;2022-12-19T11:18:14;25.13;;;17.97;;
6517;SDS011;3292;48.944;9.240;2022-12-19T11:20:45;26.80;;;17.70;;
6517;SDS011;3292;48.944;9.240;2022-12-19T11:23:24;23.80;;;15.90;;
6517;SDS011;3292;48.944;9.240;2022-12-19T11:25:55;22.63;;;16.13;;
6517;SDS011;3292;48.944;9.240;2022-12-19T11:28:28;22.30;;;15.80;;
6517;SDS011;3292;48.944;9.240;2022-12-19T11:30:59;21.80;;;17.00;;
6517;SDS011;3292;48.944;9.240;2022-12-19T11:33:29;21.60;;;15.30;;
6517;SDS011;3292;48.944;9.240;2022-12-19T11:36:00;22.03;;;16.20;;
6517;SDS011;3292;48.944;9.240;2022-12-19T11:38:36;22.17;;;16.53;;
6517;SDS011;3292;48.944;9.240;2022-12-19T11:41:12;20.80;;;15.90;;
6517;SDS011;3292;48.944;9.240;2022-12-19T11:43:43;21.00;;;16.23;;
6517;SDS011;3292;48.944;9.240;2022-12-19T11:46:22;21.53;;;15.13;;
6517;SDS011;3292;48.944;9.240;2022-12-19T11:49:05;19.93;;;14.70;;
6517;SDS011;3292;48.944;9.240;2022-12-19T11:51:42;22.63;;;15.23;;
6517;SDS011;3292;48.944;9.240;2022-12-19T11:54:16;19.60;;;14.70;;
6517;SDS011;3292;48.944;9.240;2022-12-19T11:56:53;20.27;;;15.50;;
6517;SDS011;3292;48.944;9.240;2022-12-19T11:59:26;26.20;;;15.87;;
6517;SDS011;3292;48.944;9.240;2022-12-19T12:02:03;18.90;;;15.03;;
6517;SDS011;3292;48.944;9.240;2022-12-19T12:07:41;19.63;;;14.77;;
6517;SDS011;3292;48.944;9.240;2022-12-19T12:10:12;21.50;;;15.23;;
6517;SDS011;3292;48.944;9.240;2022-12-19T12:12:46;20.60;;;13.80;;
6517;SDS011;3292;48.944;9.240;2022-12-19T12:15:39;19.50;;;14.07;;
6517;SDS011;3292;48.944;9.240;2022-12-19T12:18:17;20.67;;;14.57;;
6517;SDS011;3292;48.944;9.240;2022-12-19T12:20:56;25.00;;;15.90;;
6517;SDS011;3292;48.944;9.240;2022-12-19T12:23:31;23.57;;;16.83;;
6517;SDS011;3292;48.944;9.240;2022-12-19T12:26:07;23.97;;;15.40;;
6517;SDS011;3292;48.944;9.240;2022-12-19T12:28:59;20.47;;;15.43;;
6517;SDS011;3292;48.944;9.240;2022-12-19T12:31:47;20.97;;;14.77;;
6517;SDS011;3292;48.944;9.240;2022-12-19T12:34:30;25.03;;;14.37;;
6517;SDS011;3292;48.944;9.240;2022-12-19T12:37:19;20.90;;;15.23;;
6517;SDS011;3292;48.944;9.240;2022-12-19T12:39:59;19.03;;;13.97;;
6517;SDS011;3292;48.944;9.240;2022-12-19T12:42:41;18.83;;;13.57;;
6517;SDS011;3292;48.944;9.240;2022-12-19T12:45:18;17.13;;;13.50;;
6517;SDS011;3292;48.944;9.240;2022-12-19T12:47:50;20.23;;;14.47;;
6517;SDS011;3292;48.944;9.240;2022-12-19T12:50:19;20.63;;;14.40;;
6517;SDS011;3292;48.944;9.240;2022-12-19T12:52:50;18.87;;;13.83;;
6517;SDS011;3292;48.944;9.240;2022-12-19T12:55:25;21.53;;;16.17;;
6517;SDS011;3292;48.944;9.240;2022-12-19T12:57:55;18.30;;;13.63;;
6517;SDS011;3292;48.944;9.240;2022-12-19T13:00:25;21.20;;;15.17;;
6517;SDS011;3292;48.944;9.240;2022-12-19T13:02:56;19.87;;;13.77;;
6517;SDS011;3292;48.944;9.240;2022-12-19T13:05:37;20.93;;;15.50;;
6517;SDS011;3292;48.944;9.240;2022-12-19T13:08:26;20.47;;;15.47;;
6517;SDS011;3292;48.944;9.240;2022-12-19T13:11:02;21.97;;;14.93;;
6517;SDS011;3292;48.944;9.240;2022-12-19T13:13:48;23.50;;;17.13;;
6517;SDS011;3292;48.944;9.240;2022-12-19T13:19:22;25.93;;;17.03;;
6517;SDS011;3292;48.944;9.240;2022-12-19T13:24:46;22.33;;;16.13;;
6517;SDS011;3292;48.944;9.240;2022-12-19T13:27:31;22.00;;;15.27;;
6517;SDS011;3292;48.944;9.240;2022-12-19T13:30:13;19.97;;;14.77;;
6517;SDS011;3292;48.944;9.240;2022-12-19T13:35:33;19.70;;;14.20;;
6517;SDS011;3292;48.944;9.240;2022-12-19T13:38:02;22.27;;;14.50;;
6517;SDS011;3292;48.944;9.240;2022-12-19T13:40:56;19.13;;;14.17;;
6517;SDS011;3292;48.944;9.240;2022-12-19T13:43:26;20.60;;;14.67;;
6517;SDS011;3292;48.944;9.240;2022-12-19T13:46:22;20.17;;;15.23;;
6517;SDS011;3292;48.944;9.240;2022-12-19T13:48:56;21.30;;;14.10;;
6517;SDS011;3292;48.944;9.240;2022-12-19T13:51:36;20.73;;;14.33;;
6517;SDS011;3292;48.944;9.240;2022-12-19T13:54:17;22.50;;;14.53;;
6517;SDS011;3292;48.944;9.240;2022-12-19T13:56:54;21.10;;;14.60;;
6517;SDS011;3292;48.944;9.240;2022-12-19T13:59:22;17.60;;;14.23;;
6517;SDS011;3292;48.944;9.240;2022-12-19T14:01:52;19.10;;;14.20;;
6517;SDS011;3292;48.944;9.240;2022-12-19T14:04:25;20.80;;;14.53;;
6517;SDS011;3292;48.944;9.240;2022-12-19T14:07:14;18.37;;;13.30;;
6517;SDS011;3292;48.944;9.240;2022-12-19T14:09:52;18.87;;;15.33;;
6517;SDS011;3292;48.944;9.240;2022-12-19T14:12:21;17.47;;;13.63;;
6517;SDS011;3292;48.944;9.240;2022-12-19T14:15:19;17.40;;;13.63;;
6517;SDS011;3292;48.944;9.240;2022-12-19T14:18:00;20.93;;;14.73;;
6517;SDS011;3292;48.944;9.240;2022-12-19T14:20:34;21.00;;;14.87;;
6517;SDS011;3292;48.944;9.240;2022-12-19T14:23:03;20.47;;;15.00;;
6517;SDS011;3292;48.944;9.240;2022-12-19T14:25:33;23.47;;;14.70;;
6517;SDS011;3292;48.944;9.240;2022-12-19T14:28:04;20.00;;;14.10;;
6517;SDS011;3292;48.944;9.240;2022-12-19T14:30:37;19.30;;;14.87;;
6517;SDS011;3292;48.944;9.240;2022-12-19T14:33:06;21.23;;;14.80;;
6517;SDS011;3292;48.944;9.240;2022-12-19T14:35:41;18.83;;;13.90;;
6517;SDS011;3292;48.944;9.240;2022-12-19T14:38:14;19.90;;;14.70;;
6517;SDS011;3292;48.944;9.240;2022-12-19T14:40:43;20.60;;;14.73;;
6517;SDS011;3292;48.944;9.240;2022-12-19T14:43:12;21.23;;;14.77;;
6517;SDS011;3292;48.944;9.240;2022-12-19T14:46:12;17.27;;;14.17;;
6517;SDS011;3292;48.944;9.240;2022-12-19T14:48:51;20.20;;;14.50;;
6517;SDS011;3292;48.944;9.240;2022-12-19T14:51:31;20.33;;;15.30;;
6517;SDS011;3292;48.944;9.240;2022-12-19T14:54:05;20.83;;;15.80;;
6517;SDS011;3292;48.944;9.240;2022-12-19T14:56:44;19.83;;;14.50;;
6517;SDS011;3292;48.944;9.240;2022-12-19T14:59:24;22.33;;;14.93;;
6517;SDS011;3292;48.944;9.240;2022-12-19T15:02:00;22.20;;;15.40;;
6517;SDS011;3292;48.944;9.240;2022-12-19T15:04:38;19.03;;;14.10;;
6517;SDS011;3292;48.944;9.240;2022-12-19T15:07:13;21.43;;;15.17;;
6517;SDS011;3292;48.944;9.240;2022-12-19T15:09:49;19.67;;;14.13;;
6517;SDS011;3292;48.944;9.240;2022-12-19T15:12:25;19.93;;;14.07;;
6517;SDS011;3292;48.944;9.240;2022-12-19T15:15:16;25.00;;;15.57;;
6517;SDS011;3292;48.944;9.240;2022-12-19T15:17:47;20.87;;;14.63;;
6517;SDS011;3292;48.944;9.240;2022-12-19T15:20:16;20.23;;;14.00;;
6517;SDS011;3292;48.944;9.240;2022-12-19T15:22:45;20.83;;;14.40;;
6517;SDS011;3292;48.944;9.240;2022-12-19T15:25:15;18.77;;;14.57;;
6517;SDS011;3292;48.944;9.240;2022-12-19T15:27:44;19.37;;;15.27;;
6517;SDS011;3292;48.944;9.240;2022-12-19T15:30:13;24.03;;;16.33;;
6517;SDS011;3292;48.944;9.240;2022-12-19T15:32:43;23.30;;;16.10;;
6517;SDS011;3292;48.944;9.240;2022-12-19T15:35:12;22.63;;;15.53;;
6517;SDS011;3292;48.944;9.240;2022-12-19T15:37:40;21.73;;;15.97;;